Pagrindinis puslapis
METAR-TAF:

METAR-TAF

Oro uostai :

Viktorija, Mahė, Seišeliai

platuma: 04-40S, ilguma: 055-31E, Aukštis: 3 m

Dabartinis oras

Ataskaita buvo paskelbta 53 minutes, ne 09:00 UTC
Vėjas 4 kt iš Šiaurės, svyruoja nuo Šiaurės/Šiaurės Vakarų ir Šiaurės Rytų
Temperatūra 31°C
Drėgmė 71%
Slėgis 1009 hPa
Matomumas 10 km arba daugiau
Išsisklaidę debesys ne aukštis 2000 ft

METAR: FSIA 090900Z 01004KT 340V040 9999 SCT020 31/25 Q1009 NOSIG

Laikas: 13:53 (09:53 UTC)

Prognozė

Ataskaita buvo paskelbta 4 valandos ir 50 minutes, ne 05:03 UTC
Prognozė galioja nuo 09 metu 06 UTC su 10 metu 06 UTC
Vėjas 5 kt iš Šiaurės Vakarų
Matomumas 10 km arba daugiau
Mažai debesys ne aukštis 2100 ft
Tapsmas
nuo 09 metu 10 UTC su 09 metu 22 UTC
Vėjas 10 kt iš Šiaurės Rytų

TAF: FSIA 090503Z 0906/1006 32005KT 9999 FEW021 BECMG 0910/0922 04010KT

Orai ataskaitas ir orų prognozės (METAR, TAF).

turimą stotys yra geltonos ir raudonos taškus žemėlapyje.

Perkelti pele per norėdami pamatyti stoties vardą.

Tada spustelėkite, norėdami matyti oro stebėjimo ir prognozės.

Norėdami pakeisti žemėlapį: spustelėkite ant žalios mygtukų su juodo kryžiaus žemyn,; žalią mygtuką su brūkšneliu, jei norite nutolinti; arba žalių rodyklių gretimoms žemėlapius.


METAR-TAF: